Time;durP1;ratioP1;P1;durP2;ratioP2;P2;SDS_P1;SDS_P2;PMS_P1;PMS_P2;Temp;Humidity;BMP_temperature;BMP_pressure;BME280_temperature;BME280_humidity;BME280_pressure;Samples;Min_cycle;Max_cycle;Signal;HPM_P1;HPM_P2
2023/03/06 00:00:36;;;;;;;32.57;10.63;;;;;;;;;;5095630;28;20482;-70
2023/03/06 00:03:03;;;;;;;31.87;12.63;;;;;;;;;;5095627;28;20454;-70
2023/03/06 00:05:30;;;;;;;28.53;12.13;;;;;;;;;;5095327;28;20462;-70
2023/03/06 00:07:58;;;;;;;27.90;12.60;;;;;;;;;;5095428;28;20953;-70
2023/03/06 00:10:26;;;;;;;22.17;12.57;;;;;;;;;;5095192;28;20498;-70
2023/03/06 00:12:55;;;;;;;25.90;12.63;;;;;;;;;;5095219;28;20454;-70
2023/03/06 00:15:22;;;;;;;29.90;13.03;;;;;;;;;;5095019;28;20542;-70
2023/03/06 00:17:49;;;;;;;21.87;11.90;;;;;;;;;;5095120;28;20450;-71
2023/03/06 00:20:17;;;;;;;26.97;12.70;;;;;;;;;;5094234;28;20477;-70
2023/03/06 00:22:44;;;;;;;30.30;12.53;;;;;;;;;;5094780;28;20447;-70
2023/03/06 00:25:13;;;;;;;25.07;12.83;;;;;;;;;;5094735;28;20458;-70
2023/03/06 00:27:41;;;;;;;21.00;11.53;;;;;;;;;;5094928;28;20959;-70
2023/03/06 00:30:11;;;;;;;23.87;11.73;;;;;;;;;;5094631;28;20494;-71
2023/03/06 00:32:38;;;;;;;31.50;13.73;;;;;;;;;;5095055;28;20818;-70
2023/03/06 00:35:06;;;;;;;25.07;13.47;;;;;;;;;;5094068;28;20451;-70
2023/03/06 00:37:33;;;;;;;21.23;10.70;;;;;;;;;;5094733;28;20454;-70
2023/03/06 00:40:00;;;;;;;26.20;12.17;;;;;;;;;;5094455;28;21006;-70
2023/03/06 00:42:27;;;;;;;25.17;11.70;;;;;;;;;;5094545;28;20454;-70
2023/03/06 00:44:54;;;;;;;28.83;13.20;;;;;;;;;;5094244;28;20451;-71
2023/03/06 00:47:22;;;;;;;23.40;12.47;;;;;;;;;;5094560;28;20458;-70
2023/03/06 00:49:50;;;;;;;23.80;11.40;;;;;;;;;;5094305;28;20502;-70
2023/03/06 00:52:17;;;;;;;20.20;12.73;;;;;;;;;;5094483;28;20450;-70
2023/03/06 00:54:45;;;;;;;26.30;12.70;;;;;;;;;;5094284;28;20454;-70
2023/03/06 00:57:12;;;;;;;19.87;10.93;;;;;;;;;;5094160;28;20809;-70
2023/03/06 00:59:39;;;;;;;28.03;13.07;;;;;;;;;;5094322;28;20450;-70
2023/03/06 01:02:06;;;;;;;25.20;10.97;;;;;;;;;;5094214;28;20455;-70
2023/03/06 01:04:35;;;;;;;37.57;11.73;;;;;;;;;;5094136;28;20928;-70
2023/03/06 01:07:02;;;;;;;19.50;11.10;;;;;;;;;;5094245;28;20477;-70
2023/03/06 01:09:29;;;;;;;24.23;10.00;;;;;;;;;;5094043;28;20487;-70
2023/03/06 01:11:56;;;;;;;25.27;12.53;;;;;;;;;;5094198;28;20450;-70
2023/03/06 01:14:23;;;;;;;31.07;14.30;;;;;;;;;;5093675;28;20477;-70
2023/03/06 01:16:50;;;;;;;25.03;13.63;;;;;;;;;;5094127;28;20455;-70
2023/03/06 01:19:17;;;;;;;25.00;10.97;;;;;;;;;;5094078;28;20928;-70
2023/03/06 01:21:46;;;;;;;26.77;13.20;;;;;;;;;;5093998;28;20471;-70
2023/03/06 01:24:13;;;;;;;21.80;11.43;;;;;;;;;;5093426;28;20455;-70
2023/03/06 01:26:40;;;;;;;27.83;12.77;;;;;;;;;;5093823;28;20458;-70
2023/03/06 01:29:07;;;;;;;25.97;12.90;;;;;;;;;;5093653;28;20482;-70
2023/03/06 01:31:34;;;;;;;26.77;12.80;;;;;;;;;;5093545;28;20466;-70
2023/03/06 01:34:02;;;;;;;21.47;12.07;;;;;;;;;;5093409;28;20450;-70
2023/03/06 01:36:29;;;;;;;35.33;12.50;;;;;;;;;;5093205;28;20454;-70
2023/03/06 01:38:57;;;;;;;28.47;12.83;;;;;;;;;;5093662;28;20455;-70
2023/03/06 01:41:24;;;;;;;20.30;10.83;;;;;;;;;;5093384;28;21014;-70
2023/03/06 01:43:51;;;;;;;29.97;14.30;;;;;;;;;;5093260;28;20450;-70
2023/03/06 01:46:41;;;;;;;24.47;12.87;;;;;;;;;;5093402;28;20450;-70
2023/03/06 01:49:10;;;;;;;26.23;11.43;;;;;;;;;;5087782;28;20493;-70
2023/03/06 01:51:39;;;;;;;28.80;14.40;;;;;;;;;;5093445;28;20478;-70
2023/03/06 01:54:09;;;;;;;28.93;11.97;;;;;;;;;;5093233;28;20451;-70
2023/03/06 01:56:36;;;;;;;31.00;12.00;;;;;;;;;;5093612;28;20447;-70
2023/03/06 01:59:03;;;;;;;23.03;10.73;;;;;;;;;;5093363;28;20451;-70
2023/03/06 02:01:31;;;;;;;22.83;10.20;;;;;;;;;;5093324;28;20478;-70
2023/03/06 02:04:00;;;;;;;21.87;10.17;;;;;;;;;;5092942;28;20955;-70
2023/03/06 02:06:27;;;;;;;22.13;11.97;;;;;;;;;;5093310;28;20453;-70
2023/03/06 02:08:54;;;;;;;29.30;12.13;;;;;;;;;;5093138;28;20478;-70
2023/03/06 02:11:24;;;;;;;21.00;12.43;;;;;;;;;;5093040;28;20478;-70
2023/03/06 02:13:52;;;;;;;26.30;12.23;;;;;;;;;;5093014;28;20466;-70
2023/03/06 02:16:22;;;;;;;22.63;11.77;;;;;;;;;;5092950;28;20455;-70
2023/03/06 02:18:49;;;;;;;24.17;13.00;;;;;;;;;;5093037;28;20473;-70
2023/03/06 02:21:19;;;;;;;28.57;12.40;;;;;;;;;;5093047;28;20478;-70
2023/03/06 02:23:48;;;;;;;28.33;13.03;;;;;;;;;;5092857;28;20450;-71
2023/03/06 02:26:17;;;;;;;20.07;10.53;;;;;;;;;;5092940;28;20473;-70
2023/03/06 02:28:44;;;;;;;19.63;10.70;;;;;;;;;;5093002;28;20462;-70
2023/03/06 02:31:20;;;;;;;24.50;11.47;;;;;;;;;;5092653;28;20486;-70
2023/03/06 02:33:47;;;;;;;34.23;10.50;;;;;;;;;;5092768;28;20454;-70
2023/03/06 02:36:15;;;;;;;24.00;10.60;;;;;;;;;;5092187;28;20463;-70
2023/03/06 02:38:47;;;;;;;24.50;11.80;;;;;;;;;;5093031;28;20444;-70
2023/03/06 02:41:14;;;;;;;25.40;11.57;;;;;;;;;;5092732;28;20478;-70
2023/03/06 02:43:44;;;;;;;30.97;12.07;;;;;;;;;;5093217;28;20469;-70
2023/03/06 02:46:11;;;;;;;22.93;11.03;;;;;;;;;;5096727;28;20450;-70
2023/03/06 02:48:38;;;;;;;24.13;11.50;;;;;;;;;;5096879;28;20802;-70
2023/03/06 02:51:05;;;;;;;27.97;11.97;;;;;;;;;;5096662;28;20490;-70
2023/03/06 02:53:32;;;;;;;22.20;10.20;;;;;;;;;;5096655;28;20565;-70
2023/03/06 02:55:59;;;;;;;23.20;11.77;;;;;;;;;;5096566;28;20461;-70
2023/03/06 02:58:26;;;;;;;23.83;11.40;;;;;;;;;;5096763;28;20446;-70
2023/03/06 03:00:55;;;;;;;23.97;11.53;;;;;;;;;;5096687;28;20470;-70
2023/03/06 03:03:22;;;;;;;24.87;11.63;;;;;;;;;;5096745;28;20462;-70
2023/03/06 03:05:49;;;;;;;30.23;13.10;;;;;;;;;;5096512;28;20954;-70
2023/03/06 03:08:16;;;;;;;21.00;11.13;;;;;;;;;;5096401;28;20463;-70
2023/03/06 03:10:44;;;;;;;26.17;11.20;;;;;;;;;;5096515;28;21008;-70
2023/03/06 03:13:11;;;;;;;20.97;12.10;;;;;;;;;;5096283;28;20928;-70
2023/03/06 03:15:38;;;;;;;22.50;11.07;;;;;;;;;;5096159;28;20458;-70
2023/03/06 03:18:06;;;;;;;18.13;10.33;;;;;;;;;;5096176;28;20810;-70
2023/03/06 03:20:33;;;;;;;24.27;11.70;;;;;;;;;;5096232;28;20489;-70
2023/03/06 03:23:00;;;;;;;24.67;11.77;;;;;;;;;;5096064;28;20825;-70
2023/03/06 03:25:28;;;;;;;20.70;10.87;;;;;;;;;;5096144;28;20450;-70
2023/03/06 03:27:55;;;;;;;27.90;10.30;;;;;;;;;;5096135;28;20931;-70
2023/03/06 03:30:22;;;;;;;25.40;10.70;;;;;;;;;;5095860;28;20490;-70
2023/03/06 03:32:49;;;;;;;25.43;12.13;;;;;;;;;;5096051;28;20808;-70
2023/03/06 03:35:18;;;;;;;21.83;11.73;;;;;;;;;;5095249;28;20461;-70
2023/03/06 03:37:45;;;;;;;21.47;11.20;;;;;;;;;;5095920;28;20458;-70
2023/03/06 03:40:13;;;;;;;33.83;12.70;;;;;;;;;;5095653;28;20847;-70
2023/03/06 03:42:40;;;;;;;23.57;12.23;;;;;;;;;;5095948;28;20961;-70
2023/03/06 03:45:07;;;;;;;25.80;11.07;;;;;;;;;;5095644;28;20451;-70
2023/03/06 03:47:35;;;;;;;34.93;11.80;;;;;;;;;;5095716;28;20454;-70
2023/03/06 03:50:02;;;;;;;30.67;16.70;;;;;;;;;;5095393;28;20862;-71
2023/03/06 03:52:30;;;;;;;40.80;16.67;;;;;;;;;;5095805;28;20450;-70
2023/03/06 03:54:57;;;;;;;32.17;14.67;;;;;;;;;;5094683;28;20882;-70
2023/03/06 03:57:24;;;;;;;32.40;13.83;;;;;;;;;;5094925;28;20453;-70
2023/03/06 03:59:51;;;;;;;21.13;13.20;;;;;;;;;;5095506;28;20467;-70
2023/03/06 04:02:20;;;;;;;25.47;13.80;;;;;;;;;;5095320;28;20447;-70
2023/03/06 04:04:47;;;;;;;29.40;13.43;;;;;;;;;;5095271;28;20981;-70
2023/03/06 04:07:14;;;;;;;23.20;13.07;;;;;;;;;;5095440;28;20462;-70
2023/03/06 04:09:43;;;;;;;29.80;13.80;;;;;;;;;;5095342;28;20912;-70
2023/03/06 04:12:10;;;;;;;23.27;12.13;;;;;;;;;;5095178;28;20454;-70
2023/03/06 04:14:37;;;;;;;24.80;12.70;;;;;;;;;;5095106;28;20447;-70
2023/03/06 04:17:04;;;;;;;24.57;12.90;;;;;;;;;;5095217;28;20447;-70
2023/03/06 04:19:31;;;;;;;29.27;12.47;;;;;;;;;;5095101;28;20463;-70
2023/03/06 04:21:58;;;;;;;20.20;9.90;;;;;;;;;;5095177;28;20446;-70
2023/03/06 04:24:25;;;;;;;22.20;11.60;;;;;;;;;;5094845;28;20817;-70
2023/03/06 04:26:54;;;;;;;21.47;11.00;;;;;;;;;;5094923;28;20451;-70
2023/03/06 04:29:21;;;;;;;25.90;11.20;;;;;;;;;;5095055;28;20807;-70
2023/03/06 04:31:48;;;;;;;23.37;10.30;;;;;;;;;;5094677;28;20490;-70
2023/03/06 04:34:15;;;;;;;25.63;12.27;;;;;;;;;;5094713;28;20966;-70
2023/03/06 04:36:43;;;;;;;24.23;11.10;;;;;;;;;;5094471;28;20457;-70
2023/03/06 04:39:11;;;;;;;21.47;11.60;;;;;;;;;;5094767;28;20842;-70
2023/03/06 04:41:39;;;;;;;21.50;10.80;;;;;;;;;;5094509;28;20481;-70
2023/03/06 04:44:08;;;;;;;22.10;12.10;;;;;;;;;;5094594;28;20458;-70
2023/03/06 04:46:35;;;;;;;30.70;13.00;;;;;;;;;;5094703;28;20826;-70
2023/03/06 04:49:03;;;;;;;26.47;12.47;;;;;;;;;;5094475;28;20966;-70
2023/03/06 04:51:30;;;;;;;24.43;11.60;;;;;;;;;;5094388;28;20492;-70
2023/03/06 04:53:57;;;;;;;22.27;12.47;;;;;;;;;;5094330;28;20454;-70
2023/03/06 04:56:24;;;;;;;57.13;27.10;;;;;;;;;;5094418;28;20932;-70
2023/03/06 04:58:51;;;;;;;27.20;13.83;;;;;;;;;;5094511;28;20457;-71
2023/03/06 05:01:20;;;;;;;19.93;10.60;;;;;;;;;;5094197;28;20470;-70
2023/03/06 05:03:48;;;;;;;26.50;12.20;;;;;;;;;;5094139;28;20461;-71
2023/03/06 05:06:15;;;;;;;21.20;11.90;;;;;;;;;;5093934;28;21015;-70
2023/03/06 05:08:42;;;;;;;24.03;12.93;;;;;;;;;;5094100;28;20447;-70
2023/03/06 05:11:09;;;;;;;27.97;12.93;;;;;;;;;;5093966;28;20490;-70
2023/03/06 05:13:36;;;;;;;28.77;12.50;;;;;;;;;;5093798;28;20446;-70
2023/03/06 05:16:04;;;;;;;22.97;10.70;;;;;;;;;;5093821;28;20462;-70
2023/03/06 05:18:33;;;;;;;23.83;11.00;;;;;;;;;;5094054;28;20446;-70
2023/03/06 05:21:00;;;;;;;25.30;11.80;;;;;;;;;;5093819;28;20995;-70
2023/03/06 05:23:27;;;;;;;27.27;12.77;;;;;;;;;;5094001;28;20802;-72
2023/03/06 05:25:54;;;;;;;24.40;11.27;;;;;;;;;;5093808;28;20443;-70
2023/03/06 05:28:21;;;;;;;22.07;11.57;;;;;;;;;;5093658;28;20451;-70
2023/03/06 05:30:48;;;;;;;24.50;12.53;;;;;;;;;;5093298;28;20493;-70
2023/03/06 05:33:15;;;;;;;25.27;14.67;;;;;;;;;;5093741;28;20447;-70
2023/03/06 05:35:47;;;;;;;25.70;16.10;;;;;;;;;;5092984;28;20455;-70
2023/03/06 05:38:14;;;;;;;26.03;13.30;;;;;;;;;;5093610;28;20450;-70
2023/03/06 05:40:41;;;;;;;26.40;13.17;;;;;;;;;;5093364;28;20479;-70
2023/03/06 05:43:09;;;;;;;32.57;14.13;;;;;;;;;;5093247;28;20454;-70
2023/03/06 05:45:37;;;;;;;27.47;13.80;;;;;;;;;;5093307;28;20447;-70
2023/03/06 05:48:04;;;;;;;29.10;14.80;;;;;;;;;;5093515;28;20447;-70
2023/03/06 05:50:31;;;;;;;28.90;12.53;;;;;;;;;;5091892;28;21079;-72
2023/03/06 05:53:00;;;;;;;26.70;14.60;;;;;;;;;;5091001;28;20443;-71
2023/03/06 05:55:27;;;;;;;27.13;13.03;;;;;;;;;;5093024;28;20453;-70
2023/03/06 05:57:54;;;;;;;23.60;13.20;;;;;;;;;;5093354;28;20458;-70
2023/03/06 06:00:22;;;;;;;22.63;11.23;;;;;;;;;;5092904;28;20907;-70
2023/03/06 06:02:50;;;;;;;29.07;12.57;;;;;;;;;;5092977;28;20473;-70
2023/03/06 06:05:17;;;;;;;26.80;13.53;;;;;;;;;;5092633;28;20558;-70
2023/03/06 06:07:44;;;;;;;30.53;14.43;;;;;;;;;;5092987;28;20447;-70
2023/03/06 06:10:13;;;;;;;26.73;12.53;;;;;;;;;;5092716;28;20466;-70
2023/03/06 06:12:41;;;;;;;26.70;11.70;;;;;;;;;;5092975;28;20452;-70
2023/03/06 06:15:08;;;;;;;31.63;11.90;;;;;;;;;;5092688;28;20447;-70
2023/03/06 06:17:35;;;;;;;20.77;11.40;;;;;;;;;;5092964;28;20458;-70
2023/03/06 06:20:02;;;;;;;24.87;12.50;;;;;;;;;;5092036;28;21002;-70
2023/03/06 06:22:29;;;;;;;23.20;12.23;;;;;;;;;;5092917;28;20450;-70
2023/03/06 06:24:56;;;;;;;18.83;10.93;;;;;;;;;;5092706;28;20454;-70
2023/03/06 06:27:25;;;;;;;30.30;13.60;;;;;;;;;;5092908;28;20811;-70
2023/03/06 06:29:52;;;;;;;31.53;14.17;;;;;;;;;;5092817;28;20471;-70
2023/03/06 06:32:19;;;;;;;27.27;12.03;;;;;;;;;;5092471;28;21023;-70
2023/03/06 06:34:46;;;;;;;28.40;13.10;;;;;;;;;;5092258;28;20462;-70
2023/03/06 06:37:13;;;;;;;28.33;13.60;;;;;;;;;;5092745;28;20439;-70
2023/03/06 06:39:40;;;;;;;29.53;14.33;;;;;;;;;;5092535;28;20451;-69
2023/03/06 06:42:08;;;;;;;35.13;16.27;;;;;;;;;;5092497;28;20442;-69
2023/03/06 06:44:37;;;;;;;29.07;13.70;;;;;;;;;;5092459;28;20447;-69
2023/03/06 06:47:04;;;;;;;29.80;12.53;;;;;;;;;;5092325;28;20449;-70
2023/03/06 06:49:32;;;;;;;27.20;13.23;;;;;;;;;;5092695;28;20450;-70
2023/03/06 06:51:59;;;;;;;33.20;13.70;;;;;;;;;;5092789;28;20493;-69
2023/03/06 06:54:26;;;;;;;36.37;15.47;;;;;;;;;;5092661;28;20446;-69
2023/03/06 06:56:53;;;;;;;28.63;14.57;;;;;;;;;;5092701;28;20443;-69
2023/03/06 06:59:22;;;;;;;30.83;16.63;;;;;;;;;;5092556;28;20446;-69
2023/03/06 07:01:50;;;;;;;29.50;13.43;;;;;;;;;;5092682;28;20987;-69
2023/03/06 07:04:18;;;;;;;23.77;13.77;;;;;;;;;;5092416;28;20828;-69
2023/03/06 07:06:45;;;;;;;25.27;13.70;;;;;;;;;;5092601;28;20458;-69
2023/03/06 07:09:13;;;;;;;30.20;15.30;;;;;;;;;;5092659;28;20558;-69
2023/03/06 07:11:40;;;;;;;30.30;13.90;;;;;;;;;;5092082;28;20491;-69
2023/03/06 07:14:07;;;;;;;28.87;12.93;;;;;;;;;;5092257;28;20447;-70
2023/03/06 07:16:34;;;;;;;25.30;14.80;;;;;;;;;;5092602;28;20451;-69
2023/03/06 07:19:03;;;;;;;26.27;13.80;;;;;;;;;;5092478;28;20474;-70
2023/03/06 07:21:30;;;;;;;30.87;13.53;;;;;;;;;;5089052;28;20477;-69
2023/03/06 07:23:57;;;;;;;28.57;13.90;;;;;;;;;;5091822;28;20451;-70
2023/03/06 07:26:25;;;;;;;28.30;12.50;;;;;;;;;;5091435;28;20939;-70
2023/03/06 07:28:52;;;;;;;26.80;12.67;;;;;;;;;;5090819;28;20950;-70
2023/03/06 07:31:20;;;;;;;30.77;16.13;;;;;;;;;;5093617;28;20486;-70
2023/03/06 07:33:48;;;;;;;31.63;16.10;;;;;;;;;;5094502;28;20504;-70
2023/03/06 07:36:16;;;;;;;35.33;17.07;;;;;;;;;;5094288;28;20454;-70
2023/03/06 07:38:44;;;;;;;34.67;15.33;;;;;;;;;;5094779;28;20450;-70
2023/03/06 07:41:14;;;;;;;29.93;14.97;;;;;;;;;;5094387;28;20533;-70
2023/03/06 07:43:41;;;;;;;27.27;14.30;;;;;;;;;;5092130;28;20455;-71
2023/03/06 07:46:08;;;;;;;21.40;12.47;;;;;;;;;;5073874;28;20462;-70
2023/03/06 07:48:35;;;;;;;28.73;13.97;;;;;;;;;;5073989;28;20454;-70
2023/03/06 07:51:04;;;;;;;21.83;13.10;;;;;;;;;;5073647;28;20491;-71
2023/03/06 07:53:33;;;;;;;24.93;13.10;;;;;;;;;;5073957;28;20451;-71
2023/03/06 07:56:00;;;;;;;25.43;12.80;;;;;;;;;;5073868;28;20462;-70
2023/03/06 07:58:27;;;;;;;26.57;13.93;;;;;;;;;;5073679;28;20448;-70
2023/03/06 08:00:54;;;;;;;27.63;13.27;;;;;;;;;;5074013;28;21008;-71
2023/03/06 08:03:21;;;;;;;26.60;14.63;;;;;;;;;;5073900;28;20459;-71
2023/03/06 08:05:48;;;;;;;29.60;15.60;;;;;;;;;;5073566;28;20455;-71
2023/03/06 08:08:16;;;;;;;27.37;13.90;;;;;;;;;;5073589;28;20447;-71
2023/03/06 08:10:49;;;;;;;25.57;12.17;;;;;;;;;;5071602;28;20492;-71
2023/03/06 08:13:16;;;;;;;30.33;14.20;;;;;;;;;;5072332;28;20459;-70
2023/03/06 08:15:47;;;;;;;27.33;15.87;;;;;;;;;;5072749;28;20462;-70
2023/03/06 08:18:14;;;;;;;29.20;15.33;;;;;;;;;;5074469;28;20456;-70
2023/03/06 08:20:42;;;;;;;32.07;13.70;;;;;;;;;;5073920;28;20506;-70
2023/03/06 08:23:09;;;;;;;26.00;12.60;;;;;;;;;;5074717;28;20510;-70
2023/03/06 08:25:36;;;;;;;24.97;14.70;;;;;;;;;;5074783;28;20451;-70
2023/03/06 08:28:05;;;;;;;27.90;14.90;;;;;;;;;;5074815;28;20949;-70
2023/03/06 08:30:32;;;;;;;26.80;14.07;;;;;;;;;;5074601;28;20988;-71
2023/03/06 08:33:00;;;;;;;27.27;14.20;;;;;;;;;;5074833;28;20490;-70
2023/03/06 08:35:27;;;;;;;23.97;13.00;;;;;;;;;;5074056;28;20459;-71
2023/03/06 08:37:54;;;;;;;36.07;15.00;;;;;;;;;;5074655;28;20455;-70
2023/03/06 08:40:22;;;;;;;22.97;13.10;;;;;;;;;;5074334;28;20989;-70
2023/03/06 08:42:49;;;;;;;24.20;12.20;;;;;;;;;;5073566;28;20447;-70
2023/03/06 08:45:17;;;;;;;27.50;13.10;;;;;;;;;;5074005;28;20456;-70
2023/03/06 08:47:44;;;;;;;26.97;13.23;;;;;;;;;;5074380;28;20448;-70
2023/03/06 08:50:12;;;;;;;21.17;12.33;;;;;;;;;;5073589;28;20515;-71
2023/03/06 08:52:39;;;;;;;26.20;14.60;;;;;;;;;;5073616;28;20992;-71
2023/03/06 08:55:07;;;;;;;29.93;13.27;;;;;;;;;;5074037;28;20458;-70
2023/03/06 08:57:34;;;;;;;24.03;13.07;;;;;;;;;;5074235;28;20462;-70
2023/03/06 09:00:03;;;;;;;33.80;14.40;;;;;;;;;;5074273;28;21051;-70
2023/03/06 09:02:32;;;;;;;26.03;12.97;;;;;;;;;;5074121;28;20530;-70
2023/03/06 09:05:00;;;;;;;21.07;11.87;;;;;;;;;;5073734;28;20451;-70
2023/03/06 09:07:27;;;;;;;21.50;12.57;;;;;;;;;;5074039;28;20502;-70
2023/03/06 09:09:56;;;;;;;24.03;11.80;;;;;;;;;;5074160;28;20472;-70
2023/03/06 09:12:23;;;;;;;26.03;13.80;;;;;;;;;;5073677;28;20544;-70
2023/03/06 09:14:50;;;;;;;26.00;14.70;;;;;;;;;;5073688;28;20945;-70
2023/03/06 09:17:17;;;;;;;20.60;11.83;;;;;;;;;;5073760;28;20448;-71
2023/03/06 09:19:46;;;;;;;22.57;11.47;;;;;;;;;;5073765;28;20955;-70
2023/03/06 09:22:13;;;;;;;31.40;16.10;;;;;;;;;;5073586;28;20455;-70
2023/03/06 09:24:40;;;;;;;23.83;12.20;;;;;;;;;;5073471;28;20526;-70
2023/03/06 09:27:07;;;;;;;20.13;10.73;;;;;;;;;;5073585;28;20463;-70
2023/03/06 09:29:34;;;;;;;22.27;11.67;;;;;;;;;;5073670;28;20459;-70
2023/03/06 09:32:01;;;;;;;22.23;11.93;;;;;;;;;;5073374;28;20491;-71
2023/03/06 09:34:28;;;;;;;24.17;14.80;;;;;;;;;;5072750;28;20447;-71
2023/03/06 09:36:57;;;;;;;18.20;11.47;;;;;;;;;;5073490;28;21010;-70
2023/03/06 09:39:24;;;;;;;22.70;12.60;;;;;;;;;;5073361;28;20444;-70
2023/03/06 09:41:52;;;;;;;18.43;11.10;;;;;;;;;;5073358;28;20848;-70
2023/03/06 09:44:20;;;;;;;21.90;11.97;;;;;;;;;;5072958;28;20459;-71
2023/03/06 09:47:00;;;;;;;19.63;10.03;;;;;;;;;;5073303;28;20478;-70
2023/03/06 09:49:38;;;;;;;21.67;11.60;;;;;;;;;;5073418;28;20451;-70
2023/03/06 09:52:14;;;;;;;23.47;12.70;;;;;;;;;;5073184;28;20819;-70
2023/03/06 09:54:44;;;;;;;26.47;12.83;;;;;;;;;;5073083;28;20447;-70
2023/03/06 09:57:17;;;;;;;24.43;9.83;;;;;;;;;;5073248;28;20456;-71
2023/03/06 09:59:45;;;;;;;18.87;10.63;;;;;;;;;;5073363;28;20451;-70
2023/03/06 10:02:15;;;;;;;19.37;11.00;;;;;;;;;;5073138;28;20444;-70
2023/03/06 10:04:42;;;;;;;18.63;11.83;;;;;;;;;;5073029;28;20944;-70
2023/03/06 10:07:15;;;;;;;20.50;11.43;;;;;;;;;;5073103;28;20444;-70
2023/03/06 10:09:45;;;;;;;25.80;14.50;;;;;;;;;;5072980;28;20789;-70
2023/03/06 10:12:19;;;;;;;16.77;10.23;;;;;;;;;;5072820;28;20491;-70
2023/03/06 10:14:47;;;;;;;19.97;10.93;;;;;;;;;;5072960;28;20956;-70
2023/03/06 10:17:16;;;;;;;19.37;12.40;;;;;;;;;;5073065;28;20452;-70
2023/03/06 10:19:43;;;;;;;17.53;10.87;;;;;;;;;;5073215;28;20825;-71
2023/03/06 10:22:20;;;;;;;25.80;12.83;;;;;;;;;;5072911;28;20454;-71
2023/03/06 10:24:50;;;;;;;18.90;10.97;;;;;;;;;;5072662;28;20458;-70
2023/03/06 10:27:23;;;;;;;18.70;11.10;;;;;;;;;;5072875;28;20463;-70
2023/03/06 10:29:56;;;;;;;18.30;10.80;;;;;;;;;;5072831;28;20803;-70
2023/03/06 10:32:26;;;;;;;17.73;10.00;;;;;;;;;;5072800;28;20857;-71
2023/03/06 10:34:54;;;;;;;15.87;9.73;;;;;;;;;;5072050;28;20463;-70
2023/03/06 10:37:23;;;;;;;17.00;9.30;;;;;;;;;;5072974;28;20818;-70
2023/03/06 10:39:53;;;;;;;18.90;10.20;;;;;;;;;;5072723;28;20454;-70
2023/03/06 10:42:20;;;;;;;17.93;11.07;;;;;;;;;;5072641;28;20455;-71
2023/03/06 10:44:47;;;;;;;19.57;11.27;;;;;;;;;;5072601;28;20447;-70
2023/03/06 10:47:27;;;;;;;16.87;10.60;;;;;;;;;;5072599;28;20462;-70
2023/03/06 10:49:57;;;;;;;15.77;10.07;;;;;;;;;;5072560;28;20467;-71
2023/03/06 10:52:28;;;;;;;20.10;10.93;;;;;;;;;;5072621;28;20495;-70
2023/03/06 10:55:12;;;;;;;23.73;10.40;;;;;;;;;;5072664;28;20459;-70
2023/03/06 10:57:40;;;;;;;19.37;10.30;;;;;;;;;;5072597;28;20459;-70
2023/03/06 11:00:23;;;;;;;17.40;9.80;;;;;;;;;;5072707;28;21011;-71
2023/03/06 11:03:03;;;;;;;20.37;11.23;;;;;;;;;;5072646;28;20929;-70
2023/03/06 11:05:31;;;;;;;19.40;10.93;;;;;;;;;;5074013;28;20453;-71
2023/03/06 11:08:00;;;;;;;22.50;10.20;;;;;;;;;;5076250;28;20463;-71
2023/03/06 11:10:28;;;;;;;17.73;10.00;;;;;;;;;;5076417;28;21025;-70
2023/03/06 11:12:59;;;;;;;21.67;10.47;;;;;;;;;;5076150;28;20995;-70
2023/03/06 11:15:26;;;;;;;30.73;12.13;;;;;;;;;;5075906;28;20452;-70
2023/03/06 11:17:55;;;;;;;24.80;12.10;;;;;;;;;;5076221;28;20539;-71
2023/03/06 11:20:23;;;;;;;21.07;10.10;;;;;;;;;;5075991;28;20471;-70
2023/03/06 11:22:51;;;;;;;20.10;9.63;;;;;;;;;;5075926;28;20443;-70
2023/03/06 11:25:21;;;;;;;19.53;10.17;;;;;;;;;;5075754;28;20467;-70
2023/03/06 11:27:53;;;;;;;19.00;11.57;;;;;;;;;;5076018;28;20452;-70
2023/03/06 11:30:23;;;;;;;19.87;11.30;;;;;;;;;;5075832;28;20480;-70
2023/03/06 11:32:53;;;;;;;15.70;8.20;;;;;;;;;;5075806;28;20487;-71
2023/03/06 11:35:22;;;;;;;18.47;12.17;;;;;;;;;;5074982;28;20500;-71
2023/03/06 11:37:52;;;;;;;25.70;14.03;;;;;;;;;;5075971;28;20451;-70
2023/03/06 11:40:24;;;;;;;21.47;11.43;;;;;;;;;;5075562;28;20480;-70
2023/03/06 11:42:56;;;;;;;26.73;13.93;;;;;;;;;;5075662;28;20448;-70
2023/03/06 11:45:25;;;;;;;26.03;11.33;;;;;;;;;;5075418;28;20498;-70
2023/03/06 11:47:55;;;;;;;22.07;12.20;;;;;;;;;;5075743;28;20815;-70
2023/03/06 11:50:26;;;;;;;23.30;12.27;;;;;;;;;;5075453;28;20474;-70
2023/03/06 11:52:55;;;;;;;19.40;11.37;;;;;;;;;;5075570;28;20492;-70
2023/03/06 11:55:31;;;;;;;20.83;10.47;;;;;;;;;;5075285;28;20448;-71
2023/03/06 11:58:06;;;;;;;22.33;12.33;;;;;;;;;;5075350;28;20821;-70
2023/03/06 12:00:45;;;;;;;21.90;11.30;;;;;;;;;;5075324;28;20464;-70
2023/03/06 12:03:24;;;;;;;24.47;13.40;;;;;;;;;;5075174;28;20452;-70
2023/03/06 12:05:53;;;;;;;22.03;11.37;;;;;;;;;;5075114;28;20457;-70
2023/03/06 12:08:29;;;;;;;19.77;10.67;;;;;;;;;;5075187;28;20451;-71
2023/03/06 12:11:02;;;;;;;22.37;10.70;;;;;;;;;;5075229;28;20483;-71
2023/03/06 12:13:40;;;;;;;17.50;10.33;;;;;;;;;;5074998;28;20491;-71
2023/03/06 12:16:17;;;;;;;17.20;9.97;;;;;;;;;;5074423;28;20443;-71
2023/03/06 12:18:50;;;;;;;24.40;12.00;;;;;;;;;;5075015;28;20451;-70
2023/03/06 12:21:20;;;;;;;21.63;10.90;;;;;;;;;;5074870;28;20475;-70
2023/03/06 12:23:58;;;;;;;17.83;10.47;;;;;;;;;;5074712;28;20451;-71
2023/03/06 12:26:35;;;;;;;20.43;11.77;;;;;;;;;;5074921;28;20811;-71
2023/03/06 12:29:11;;;;;;;21.03;11.60;;;;;;;;;;5074780;28;20458;-71
2023/03/06 12:31:46;;;;;;;22.40;11.50;;;;;;;;;;5074850;28;20502;-70
2023/03/06 12:34:23;;;;;;;15.77;10.67;;;;;;;;;;5074498;28;20487;-70
2023/03/06 12:36:54;;;;;;;21.90;11.07;;;;;;;;;;5074830;28;20447;-70
2023/03/06 12:39:27;;;;;;;17.93;11.10;;;;;;;;;;5074554;28;20966;-70
2023/03/06 12:42:01;;;;;;;22.20;11.30;;;;;;;;;;5074462;28;21023;-70
2023/03/06 12:44:46;;;;;;;18.10;10.63;;;;;;;;;;5074350;28;20447;-70
2023/03/06 12:47:16;;;;;;;23.27;11.10;;;;;;;;;;5067807;28;20448;-70
2023/03/06 12:49:44;;;;;;;20.97;11.00;;;;;;;;;;5074313;28;20444;-72
2023/03/06 12:52:21;;;;;;;23.03;11.37;;;;;;;;;;5074293;28;20462;-71
2023/03/06 12:54:48;;;;;;;19.73;9.53;;;;;;;;;;5074186;28;20451;-70
2023/03/06 12:57:17;;;;;;;22.60;12.53;;;;;;;;;;5074444;28;20538;-70
2023/03/06 12:59:46;;;;;;;21.33;12.87;;;;;;;;;;5074239;28;20816;-70
2023/03/06 13:02:42;;;;;;;22.17;10.90;;;;;;;;;;5074053;28;20456;-71
2023/03/06 13:05:24;;;;;;;22.00;12.10;;;;;;;;;;5073946;28;20452;-71
2023/03/06 13:07:57;;;;;;;21.63;12.13;;;;;;;;;;5074231;28;20455;-70
2023/03/06 13:10:27;;;;;;;26.13;10.63;;;;;;;;;;5074114;28;20973;-70
2023/03/06 13:12:56;;;;;;;28.47;13.10;;;;;;;;;;5073847;28;20480;-71
2023/03/06 13:15:37;;;;;;;25.23;13.50;;;;;;;;;;5073659;28;20455;-70
2023/03/06 13:18:19;;;;;;;22.33;12.90;;;;;;;;;;5073844;28;20471;-70
2023/03/06 13:20:47;;;;;;;23.63;11.37;;;;;;;;;;5073610;28;20463;-70
2023/03/06 13:23:32;;;;;;;23.70;11.80;;;;;;;;;;5073792;28;20818;-71
2023/03/06 13:26:00;;;;;;;23.03;11.77;;;;;;;;;;5073796;28;20485;-70
2023/03/06 13:28:43;;;;;;;22.93;13.10;;;;;;;;;;5073318;28;20963;-70
2023/03/06 13:31:10;;;;;;;22.03;12.07;;;;;;;;;;5073575;28;20467;-70
2023/03/06 13:33:54;;;;;;;18.63;10.87;;;;;;;;;;5073410;28;20510;-71
2023/03/06 13:36:32;;;;;;;21.73;11.40;;;;;;;;;;5072982;28;20534;-70
2023/03/06 13:39:03;;;;;;;25.53;11.77;;;;;;;;;;5073441;28;20916;-71
2023/03/06 13:41:58;;;;;;;21.40;10.87;;;;;;;;;;5073362;28;20819;-70
2023/03/06 13:44:49;;;;;;;24.30;12.07;;;;;;;;;;5049038;28;20467;-70
2023/03/06 13:47:25;;;;;;;26.40;11.70;;;;;;;;;;5073370;28;20456;-71
2023/03/06 13:49:53;;;;;;;26.30;11.97;;;;;;;;;;5073382;28;20470;-70
2023/03/06 13:52:24;;;;;;;23.30;11.73;;;;;;;;;;5073148;28;20452;-71
2023/03/06 13:54:56;;;;;;;29.60;13.00;;;;;;;;;;5073112;28;20495;-70
2023/03/06 13:57:30;;;;;;;21.60;11.77;;;;;;;;;;5073296;28;20448;-70
2023/03/06 14:00:21;;;;;;;18.40;11.03;;;;;;;;;;5073039;28;20485;-70
2023/03/06 14:02:58;;;;;;;22.33;12.60;;;;;;;;;;5062895;28;20455;-70
2023/03/06 14:05:26;;;;;;;24.20;13.37;;;;;;;;;;5073075;28;20926;-71
2023/03/06 14:08:03;;;;;;;28.00;11.80;;;;;;;;;;5073172;28;20444;-70
2023/03/06 14:10:33;;;;;;;27.17;13.50;;;;;;;;;;5073137;28;20817;-70
2023/03/06 14:13:02;;;;;;;20.43;11.20;;;;;;;;;;5072544;28;20443;-71
2023/03/06 14:15:32;;;;;;;20.47;11.13;;;;;;;;;;5073016;28;20516;-71
2023/03/06 14:18:02;;;;;;;26.13;13.13;;;;;;;;;;5073350;28;20547;-70
2023/03/06 14:20:33;;;;;;;22.73;12.30;;;;;;;;;;5072823;28;20475;-70
2023/03/06 14:23:22;;;;;;;18.57;10.07;;;;;;;;;;5072911;28;20450;-70
2023/03/06 14:25:52;;;;;;;23.00;11.30;;;;;;;;;;5072931;28;20542;-70
2023/03/06 14:28:23;;;;;;;18.17;11.03;;;;;;;;;;5073205;28;20452;-70
2023/03/06 14:30:51;;;;;;;16.93;9.77;;;;;;;;;;5072980;28;20466;-69